Back to Top

Language: 

My Weather Underground Personal Weather Station Historical Data with Graphs...

Delerius Weather Station Historical Data
Daily Summary for December 30, 2017 Units:  Metric    English   Both
« Previous Day
Next Day »
Daily Weekly Monthly Yearly Custom
  High: Low: Average:
Temperature: 10.1 °C 1.3 °C 6.5 °C
Dew Point: 7.5 °C 0.5 °C 4.1 °C
Humidity: 98 % 73 % 85 %
Wind Speed: 41.8 km/h 0 km/h 15.3 km/h
Wind Gust: 62.8 km/h - -
Wind:- - SW
Pressure: 996.8 hPa 985.3 hPa -
Precipitation: 5.08 mm    
Historical Graphs
 
 
Tabular Data for December 30, 2017
Time Temperature Dew Point Pressure Wind Wind Speed Wind Gust Humidity Rainfall Rate (Hourly) solar Conditions
00:04 4.5 °C 1.7 °C 992.1 hPa SSE 8 km/h 11.3 km/h 82 % 0 mm 0 W/m2
00:05 4.5 °C 1.7 °C 992.1 hPa SSE 8 km/h 11.3 km/h 82 % 0 mm 0 W/m2
00:10 4.4 °C 1.6 °C 991.8 hPa South 14.5 km/h 22.5 km/h 82 % 0 mm 0 W/m2
00:14 4.5 °C 1.7 °C 991.8 hPa SSW 11.3 km/h 19.3 km/h 82 % 0 mm 0 W/m2
00:16 4.5 °C 1.7 °C 991.4 hPa SSW 12.9 km/h 22.5 km/h 82 % 0 mm 0 W/m2
00:21 4.6 °C 1.8 °C 991.4 hPa SSW 8 km/h 14.5 km/h 82 % 0 mm 0 W/m2
00:26 4.6 °C 1.8 °C 991.4 hPa SW 3.2 km/h 8 km/h 82 % 0 mm 0 W/m2
00:27 4.6 °C 1.8 °C 991.4 hPa SSW 4.8 km/h 8 km/h 82 % 0 mm 0 W/m2
00:32 4.6 °C 1.9 °C 991.4 hPa South 4.8 km/h 11.3 km/h 83 % 0 mm 0 W/m2
00:34 4.6 °C 1.9 °C 991.4 hPa South 4.8 km/h 9.7 km/h 83 % 0 mm 0 W/m2
00:39 4.6 °C 1.9 °C 991.4 hPa South 8 km/h 12.9 km/h 83 % 0 mm 0 W/m2
00:41 4.6 °C 1.9 °C 991.4 hPa SSE 6.4 km/h 11.3 km/h 83 % 0 mm 0 W/m2
00:45 4.6 °C 1.8 °C 991.4 hPa SSE 8 km/h 12.9 km/h 82 % 0 mm 0 W/m2
00:48 4.6 °C 1.8 °C 991.4 hPa South 4.8 km/h 11.3 km/h 82 % 0 mm 0 W/m2
00:53 4.6 °C 1.8 °C 991.1 hPa South 1.6 km/h 3.2 km/h 82 % 0 mm 0 W/m2
00:54 4.6 °C 1.8 °C 991.1 hPa Calm   1.6 km/h 82 % 0 mm 0 W/m2
00:59 4.6 °C 1.8 °C 991.1 hPa Calm     82 % 0 mm 0 W/m2
01:04 4.6 °C 1.8 °C 990.7 hPa ESE 1.6 km/h 3.2 km/h 82 % 0 mm 0 W/m2
01:09 4.7 °C 1.9 °C 990.7 hPa ESE 1.6 km/h 6.4 km/h 82 % 0 mm 0 W/m2
01:14 4.7 °C 1.7 °C 991.1 hPa SSE 3.2 km/h 6.4 km/h 81 % 0 mm 0 W/m2
01:16 4.7 °C 1.7 °C 991.1 hPa SE 4.8 km/h 8 km/h 81 % 0 mm 0 W/m2
01:21 4.7 °C 1.9 °C 991.1 hPa SE 3.2 km/h 8 km/h 82 % 0 mm 0 W/m2
01:22 4.7 °C 1.9 °C 991.1 hPa SE 4.8 km/h 8 km/h 82 % 0 mm 0 W/m2
01:26 4.7 °C 1.9 °C 991.1 hPa ESE 6.4 km/h 9.7 km/h 82 % 0 mm 0 W/m2
01:31 4.6 °C 1.9 °C 991.1 hPa SE 6.4 km/h 11.3 km/h 83 % 0 mm 0 W/m2
01:36 4.4 °C 1.9 °C 991.1 hPa SE 8 km/h 11.3 km/h 84 % 0.25 mm 0 W/m2
01:38 4.4 °C 1.9 °C 991.1 hPa SE 9.7 km/h 11.3 km/h 84 % 0.25 mm 0 W/m2
01:43 4.3 °C 2 °C 990.7 hPa SSE 6.4 km/h 12.9 km/h 85 % 0.51 mm 0 W/m2
01:44 4.3 °C 2 °C 990.7 hPa SSE 8 km/h 14.5 km/h 85 % 0.51 mm 0 W/m2
01:49 4.2 °C 2.1 °C 990.4 hPa SSE 8 km/h 11.3 km/h 86 % 0.51 mm 0 W/m2
01:53 4.1 °C 2.1 °C 990.1 hPa SSE 6.4 km/h 12.9 km/h 87 % 0.51 mm 0 W/m2
01:58 3.9 °C 1.9 °C 989.7 hPa SE 9.7 km/h 14.5 km/h 87 % 0.76 mm 0 W/m2
02:03 3.7 °C 1.9 °C 989.7 hPa SE 8 km/h 14.5 km/h 88 % 1.02 mm 0 W/m2
02:08 3.5 °C 1.8 °C 990.1 hPa SSE 8 km/h 12.9 km/h 89 % 1.02 mm 0 W/m2
02:09 3.5 °C 1.8 °C 990.1 hPa SSE 8 km/h 12.9 km/h 89 % 1.27 mm 0 W/m2
02:14 3.4 °C 1.8 °C 989.7 hPa South 3.2 km/h 8 km/h 89 % 1.27 mm 0 W/m2
02:19 3.3 °C 1.8 °C 989.4 hPa SSE 4.8 km/h 8 km/h 90 % 1.52 mm 0 W/m2
02:20 3.3 °C 1.8 °C 989.4 hPa SSE 4.8 km/h 8 km/h 90 % 1.52 mm 0 W/m2
02:24 3.2 °C 1.7 °C 989.4 hPa SSE 8 km/h 16.1 km/h 90 % 1.52 mm 0 W/m2
02:25 3.2 °C 1.7 °C 989.4 hPa SSE 9.7 km/h 16.1 km/h 90 % 1.52 mm 0 W/m2
02:30 3 °C 1.7 °C 989.1 hPa SSE 9.7 km/h 14.5 km/h 91 % 1.78 mm 0 W/m2
02:31 2.9 °C 1.6 °C 989.1 hPa SSE 9.7 km/h 16.1 km/h 91 % 2.03 mm 0 W/m2
02:32 2.9 °C 1.6 °C 989.1 hPa SSE 9.7 km/h 16.1 km/h 91 % 2.03 mm 0 W/m2
02:37 2.8 °C 1.5 °C 989.1 hPa SSE 8 km/h 12.9 km/h 91 % 2.29 mm 0 W/m2
02:38 2.8 °C 1.5 °C 989.1 hPa SSE 6.4 km/h 12.9 km/h 91 % 2.29 mm 0 W/m2
02:43 2.7 °C 1.6 °C 988.7 hPa ESE 8 km/h 11.3 km/h 92 % 2.29 mm 0 W/m2
02:45 2.7 °C 1.6 °C 988.4 hPa ESE 6.4 km/h 9.7 km/h 92 % 2.29 mm 0 W/m2
02:50 2.6 °C 1.4 °C 988.7 hPa SE 8 km/h 12.9 km/h 92 % 2.29 mm 0 W/m2
02:51 2.6 °C 1.4 °C 988.7 hPa SE 9.7 km/h 14.5 km/h 92 % 2.54 mm 0 W/m2
02:54 2.5 °C 1.3 °C 988.4 hPa SE 6.4 km/h 9.7 km/h 92 % 2.54 mm 0 W/m2
02:57 2.4 °C 1.2 °C 988.4 hPa SE 9.7 km/h 19.3 km/h 92 % 2.79 mm 0 W/m2
03:02 2.3 °C 1.3 °C 988 hPa SE 9.7 km/h 14.5 km/h 93 % 2.79 mm 0 W/m2
03:03 2.3 °C 1.3 °C 988 hPa SE 11.3 km/h 14.5 km/h 93 % 3.05 mm 0 W/m2
03:08 2.2 °C 1.2 °C 987.7 hPa SE 12.9 km/h 22.5 km/h 93 % 3.05 mm 0 W/m2
03:09 2.1 °C 1.1 °C 987.7 hPa SE 9.7 km/h 22.5 km/h 93 % 2.79 mm 0 W/m2
03:14 2 °C 1 °C 987.7 hPa SE 9.7 km/h 14.5 km/h 93 % 3.05 mm 0 W/m2
03:17 1.8 °C 0.8 °C 987.7 hPa SE 11.3 km/h 14.5 km/h 93 % 2.79 mm 0 W/m2
03:23 1.7 °C 0.7 °C 987.7 hPa SE 12.9 km/h 16.1 km/h 93 % 2.54 mm 0 W/m2
03:28 1.5 °C 0.5 °C 987.4 hPa SE 9.7 km/h 14.5 km/h 93 % 2.54 mm 0 W/m2
03:29 1.5 °C 0.5 °C 987.4 hPa SE 9.7 km/h 14.5 km/h 93 % 2.54 mm 0 W/m2
03:34 1.4 °C 0.6 °C 987.4 hPa SSE 11.3 km/h 17.7 km/h 94 % 2.29 mm 0 W/m2
03:35 1.4 °C 0.6 °C 987.4 hPa SSE 12.9 km/h 19.3 km/h 94 % 2.29 mm 0 W/m2
03:40 1.4 °C 0.6 °C 987 hPa SSE 11.3 km/h 17.7 km/h 94 % 2.03 mm 0 W/m2
03:41 1.4 °C 0.6 °C 987 hPa SSE 12.9 km/h 17.7 km/h 94 % 2.03 mm 0 W/m2
03:46 1.4 °C 0.6 °C 987 hPa SSE 12.9 km/h 22.5 km/h 94 % 1.52 mm 0 W/m2
03:47 1.4 °C 0.6 °C 987 hPa SSE 11.3 km/h 22.5 km/h 94 % 1.52 mm 0 W/m2
03:52 1.4 °C 0.6 °C 986.7 hPa SE 11.3 km/h 16.1 km/h 94 % 1.27 mm 0 W/m2
03:57 1.4 °C 0.7 °C 986.7 hPa SSE 11.3 km/h 16.1 km/h 95 % 1.02 mm 0 W/m2
04:02 1.5 °C 0.8 °C 986.3 hPa SSE 11.3 km/h 16.1 km/h 95 % 0.51 mm 0 W/m2
04:03 1.5 °C 0.8 °C 986.7 hPa SSE 9.7 km/h 14.5 km/h 95 % 0.51 mm 0 W/m2
04:08 1.5 °C 0.8 °C 986.3 hPa SE 11.3 km/h 19.3 km/h 95 % 0.51 mm 0 W/m2
04:09 1.5 °C 0.8 °C 986.3 hPa SE 11.3 km/h 19.3 km/h 95 % 0.51 mm 0 W/m2
04:14 1.6 °C 0.9 °C 986.3 hPa SSE 12.9 km/h 17.7 km/h 95 % 0.51 mm 0 W/m2
04:17 1.6 °C 0.9 °C 986 hPa SE 12.9 km/h 17.7 km/h 95 % 0.51 mm 0 W/m2
04:19 1.6 °C 0.9 °C 986 hPa SE 12.9 km/h 17.7 km/h 95 % 0.51 mm 0 W/m2
04:24 1.6 °C 0.9 °C 986 hPa SE 8 km/h 11.3 km/h 95 % 0.25 mm 0 W/m2
04:26 1.6 °C 0.9 °C 986 hPa SE 6.4 km/h 11.3 km/h 95 % 0.25 mm 0 W/m2
04:31 1.7 °C 1 °C 986 hPa ESE 1.6 km/h 4.8 km/h 95 % 0.51 mm 0 W/m2
04:36 1.7 °C 1 °C 986 hPa SSE 3.2 km/h 8 km/h 95 % 0.51 mm 0 W/m2
04:37 1.7 °C 1 °C 986 hPa SSE 1.6 km/h 6.4 km/h 95 % 0.51 mm 0 W/m2
04:42 1.7 °C 1 °C 986 hPa SE 3.2 km/h 8 km/h 95 % 0.51 mm 0 W/m2
04:44 1.7 °C 1 °C 986 hPa SE 4.8 km/h 9.7 km/h 95 % 0.51 mm 0 W/m2
04:48 1.8 °C 1.2 °C 986 hPa SE 3.2 km/h 8 km/h 96 % 0.51 mm 0 W/m2
04:50 1.8 °C 1.2 °C 985.7 hPa SE 1.6 km/h 4.8 km/h 96 % 0.51 mm 0 W/m2
04:55 1.8 °C 1.2 °C 985.7 hPa SE 3.2 km/h 8 km/h 96 % 0.25 mm 0 W/m2
05:00 1.8 °C 1.2 °C 985.7 hPa Calm     96 % 0.25 mm 0 W/m2
05:05 1.8 °C 1.2 °C 985.7 hPa Calm   3.2 km/h 96 % 0.51 mm 0 W/m2
05:07 1.8 °C 1.2 °C 985.7 hPa Calm   1.6 km/h 96 % 0.51 mm 0 W/m2
05:09 1.8 °C 1.2 °C 985.7 hPa SSE 1.6 km/h 6.4 km/h 96 % 0.51 mm 0 W/m2
05:14 1.9 °C 1.3 °C 985.7 hPa Calm   1.6 km/h 96 % 0.51 mm 0 W/m2
05:16 1.9 °C 1.3 °C 985.3 hPa Calm     96 % 0.51 mm 0 W/m2
05:17 1.9 °C 1.3 °C 985.7 hPa Calm     96 % 0.51 mm 0 W/m2
05:22 1.9 °C 1.3 °C 985.7 hPa Calm     96 % 0.51 mm 0 W/m2
05:26 1.9 °C 1.3 °C 985.7 hPa Calm     96 % 0.51 mm 0 W/m2
05:31 1.9 °C 1.3 °C 985.7 hPa Calm     96 % 0.25 mm 0 W/m2
05:35 2 °C 1.4 °C 985.7 hPa Calm     96 % 0.25 mm 0 W/m2
05:38 2 °C 1.4 °C 985.7 hPa Calm     96 % 0.25 mm 0 W/m2
05:42 2 °C 1.4 °C 985.7 hPa Calm     96 % 0.25 mm 0 W/m2
05:44 2 °C 1.4 °C 985.7 hPa Calm     96 % 0.25 mm 0 W/m2
05:49 2.1 °C 1.6 °C 985.7 hPa Calm     96 % 0.25 mm 0 W/m2
05:53 2.1 °C 1.6 °C 985.3 hPa Calm   1.6 km/h 96 % 0.25 mm 0 W/m2
05:56 2.1 °C 1.6 °C 985.7 hPa Calm     96 % 0.25 mm 0 W/m2
06:01 2.1 °C 1.6 °C 985.7 hPa East 1.6 km/h 3.2 km/h 96 % 0 mm 0 W/m2
06:02 2.1 °C 1.6 °C 985.7 hPa East 1.6 km/h 3.2 km/h 96 % 0 mm 0 W/m2
06:07 2.1 °C 1.6 °C 985.3 hPa Calm   1.6 km/h 96 % 0 mm 0 W/m2
06:12 2.1 °C 1.6 °C 985.3 hPa East 1.6 km/h 6.4 km/h 96 % 0 mm 0 W/m2
06:13 2.1 °C 1.6 °C 985.3 hPa Calm   3.2 km/h 96 % 0 mm 0 W/m2
06:18 2.1 °C 1.6 °C 985.3 hPa Calm   3.2 km/h 96 % 0 mm 0 W/m2
06:19 2.1 °C 1.6 °C 985.3 hPa East 1.6 km/h 3.2 km/h 96 % 0 mm 0 W/m2
06:24 2.1 °C 1.6 °C 985.3 hPa Calm   3.2 km/h 96 % 0 mm 0 W/m2
06:25 2.1 °C 1.6 °C 985.3 hPa Calm   3.2 km/h 96 % 0 mm 0 W/m2
06:29 2.1 °C 1.6 °C 985.3 hPa Calm   1.6 km/h 96 % 0.25 mm 0 W/m2
06:31 2.1 °C 1.6 °C 985.3 hPa Calm     96 % 0.25 mm 0 W/m2
06:36 2 °C 1.4 °C 985.3 hPa Calm   1.6 km/h 96 % 0.25 mm 0 W/m2
06:39 2 °C 1.4 °C 985.3 hPa Calm   3.2 km/h 96 % 0.25 mm 0 W/m2
06:40 2 °C 1.4 °C 985.3 hPa Calm   3.2 km/h 96 % 0.25 mm 0 W/m2
06:45 1.9 °C 1.3 °C 985.3 hPa Calm     96 % 0.25 mm 0 W/m2
06:50 1.9 °C 1.3 °C 985.3 hPa Calm     96 % 0.25 mm 0 W/m2
06:51 1.9 °C 1.3 °C 985.3 hPa Calm     96 % 0.25 mm 0 W/m2
06:56 1.8 °C 1.2 °C 985.7 hPa Calm     96 % 0.25 mm 0 W/m2
07:01 1.7 °C 1.1 °C 985.7 hPa Calm     96 % 0.25 mm 0 W/m2
07:03 1.7 °C 1.1 °C 985.7 hPa Calm     96 % 0.25 mm 0 W/m2
07:08 1.6 °C 1.1 °C 985.7 hPa Calm     96 % 0.25 mm 0 W/m2
07:11 1.6 °C 1.1 °C 985.7 hPa Calm     96 % 0.25 mm 0 W/m2
07:14 1.6 °C 1.1 °C 985.7 hPa Calm     96 % 0.25 mm 0 W/m2
07:19 1.5 °C 0.9 °C 985.7 hPa Calm     96 % 0.25 mm 0 W/m2
07:20 1.5 °C 0.9 °C 985.7 hPa Calm     96 % 0.25 mm 0 W/m2
07:25 1.4 °C 0.8 °C 985.7 hPa Calm     96 % 0 mm 0 W/m2
07:26 1.4 °C 0.8 °C 985.7 hPa Calm     96 % 0 mm 0 W/m2
07:29 1.3 °C 0.7 °C 985.7 hPa Calm     96 % 0 mm 0 W/m2
07:31 1.3 °C 0.7 °C 985.7 hPa Calm     96 % 0 mm 0 W/m2
07:36 1.3 °C 0.7 °C 985.7 hPa WSW 1.6 km/h 8 km/h 96 % 0 mm 0 W/m2
07:41 1.6 °C 1.1 °C 985.7 hPa West 9.7 km/h 14.5 km/h 96 % 0 mm 0 W/m2
07:42 1.7 °C 1.1 °C 985.7 hPa West 11.3 km/h 14.5 km/h 96 % 0 mm 0 W/m2
07:46 2.5 °C 2.1 °C 986 hPa West 9.7 km/h 16.1 km/h 97 % 0 mm 0 W/m2
07:48 3.1 °C 2.7 °C 986 hPa West 12.9 km/h 20.9 km/h 97 % 0 mm 0 W/m2
07:53 4.6 °C 4.2 °C 986 hPa West 14.5 km/h 20.9 km/h 97 % 0 mm 0 W/m2
07:54 4.7 °C 4.3 °C 986 hPa West 14.5 km/h 25.7 km/h 97 % 0 mm 0 W/m2
07:59 5.6 °C 5.3 °C 986 hPa West 16.1 km/h 24.1 km/h 98 % 0 mm 0 W/m2
08:00 5.6 °C 5.3 °C 986 hPa West 16.1 km/h 24.1 km/h 98 % 0 mm 0 W/m2
08:01 5.7 °C 5.4 °C 986 hPa West 16.1 km/h 24.1 km/h 98 % 0 mm 0 W/m2
08:05 5.9 °C 5.6 °C 986.3 hPa West 17.7 km/h 29 km/h 98 % 0 mm 0 W/m2
08:08 6 °C 5.7 °C 986.3 hPa WNW 20.9 km/h 37 km/h 98 % 0 mm 0 W/m2
08:13 6.2 °C 5.9 °C 986.3 hPa West 20.9 km/h 32.2 km/h 98 % 0 mm 0 W/m2
08:16 6.2 °C 5.9 °C 986.3 hPa WNW 20.9 km/h 33.8 km/h 98 % 0 mm 0 W/m2
08:17 6.2 °C 5.9 °C 986.3 hPa WNW 19.3 km/h 33.8 km/h 98 % 0 mm 0 W/m2
08:22 6.3 °C 6 °C 986.7 hPa WNW 17.7 km/h 25.7 km/h 98 % 0 mm 0 W/m2
08:27 6.4 °C 5.9 °C 986.7 hPa WNW 19.3 km/h 32.2 km/h 97 % 0 mm 5 W/m2
08:28 6.3 °C 5.8 °C 986.7 hPa WNW 19.3 km/h 32.2 km/h 97 % 0 mm 5 W/m2
08:33 6.3 °C 5.8 °C 986.7 hPa West 17.7 km/h 29 km/h 97 % 0 mm 5 W/m2
08:38 6.4 °C 5.9 °C 987 hPa West 24.1 km/h 37 km/h 97 % 0 mm 7 W/m2
08:39 6.4 °C 5.9 °C 987 hPa West 24.1 km/h 37 km/h 97 % 0 mm 7 W/m2
08:40 6.5 °C 6.1 °C 987 hPa West 24.1 km/h 37 km/h 97 % 0 mm 7 W/m2
08:45 6.5 °C 6.1 °C 987 hPa West 20.9 km/h 37 km/h 97 % 0 mm 9 W/m2
08:46 6.5 °C 6.1 °C 987 hPa West 22.5 km/h 41.8 km/h 97 % 0 mm 9 W/m2
08:51 6.5 °C 5.9 °C 987 hPa West 22.5 km/h 37 km/h 96 % 0 mm 11 W/m2
08:56 6.6 °C 6 °C 987 hPa West 30.6 km/h 41.8 km/h 96 % 0 mm 14 W/m2
08:58 6.7 °C 6.1 °C 987 hPa West 29 km/h 45.1 km/h 96 % 0 mm 18 W/m2
09:02 6.9 °C 6.3 °C 987 hPa West 37 km/h 54.7 km/h 96 % 0 mm 19 W/m2
09:07 7.1 °C 6.3 °C 987 hPa West 30.6 km/h 49.9 km/h 95 % 0 mm 19 W/m2
09:08 7.1 °C 6.3 °C 987 hPa West 30.6 km/h 49.9 km/h 95 % 0 mm 19 W/m2
09:13 7.3 °C 6.6 °C 987.4 hPa West 35.4 km/h 54.7 km/h 95 % 0 mm 26 W/m2
09:14 7.3 °C 6.6 °C 987 hPa West 35.4 km/h 61.2 km/h 95 % 0 mm 28 W/m2
09:16 7.4 °C 6.5 °C 987.4 hPa West 35.4 km/h 61.2 km/h 94 % 0 mm 26 W/m2
09:20 7.5 °C 6.4 °C 987.4 hPa West 35.4 km/h 54.7 km/h 93 % 0 mm 25 W/m2
09:23 7.6 °C 6.6 °C 987.7 hPa West 37 km/h 51.5 km/h 93 % 0 mm 26 W/m2
09:27 7.8 °C 6.6 °C 987.4 hPa West 37 km/h 56.3 km/h 92 % 0 mm 28 W/m2
09:32 7.8 °C 6.4 °C 987.7 hPa West 35.4 km/h 51.5 km/h 91 % 0 mm 98 W/m2
09:36 7.9 °C 6.3 °C 988 hPa West 32.2 km/h 49.9 km/h 90 % 0 mm 67 W/m2
09:39 7.9 °C 6.3 °C 988 hPa West 35.4 km/h 57.9 km/h 90 % 0 mm 104 W/m2
09:42 7.9 °C 6.3 °C 988 hPa West 33.8 km/h 56.3 km/h 90 % 0 mm 93 W/m2
09:45 8 °C 6.4 °C 988 hPa West 38.6 km/h 56.3 km/h 90 % 0 mm 88 W/m2
09:48 8.1 °C 6.4 °C 988 hPa West 41.8 km/h 62.8 km/h 89 % 0 mm 127 W/m2
09:53 8.2 °C 6.3 °C 988.4 hPa West 37 km/h 56.3 km/h 88 % 0 mm 125 W/m2
09:55 8.3 °C 6.4 °C 988.4 hPa West 33.8 km/h 51.5 km/h 88 % 0 mm 132 W/m2
10:00 8.2 °C 6.5 °C 988.7 hPa West 37 km/h 54.7 km/h 89 % 0 mm 95 W/m2
10:01 8.2 °C 6.5 °C 988.7 hPa West 33.8 km/h 49.9 km/h 89 % 0 mm 102 W/m2
10:02 8.2 °C 6.5 °C 988.7 hPa West 33.8 km/h 48.3 km/h 89 % 0 mm 146 W/m2
10:07 8.1 °C 6.4 °C 989.1 hPa West 35.4 km/h 53.1 km/h 89 % 0 mm 32 W/m2
10:09 8.1 °C 6.4 °C 988.7 hPa West 30.6 km/h 48.3 km/h 89 % 0 mm 42 W/m2
10:12 7.9 °C 6.3 °C 989.1 hPa West 30.6 km/h 46.7 km/h 90 % 0 mm 58 W/m2
10:14 7.9 °C 6.3 °C 989.1 hPa West 35.4 km/h 62.8 km/h 90 % 0 mm 70 W/m2
10:17 7.8 °C 6.3 °C 989.1 hPa West 27.4 km/h 48.3 km/h 90 % 0 mm 70 W/m2
10:22 7.8 °C 6.3 °C 989.4 hPa West 30.6 km/h 45.1 km/h 90 % 0 mm 76 W/m2
10:26 7.8 °C 6.3 °C 989.4 hPa West 30.6 km/h 48.3 km/h 90 % 0 mm 93 W/m2
10:31 7.8 °C 6.3 °C 989.7 hPa West 32.2 km/h 46.7 km/h 90 % 0 mm 72 W/m2
10:32 7.8 °C 6.3 °C 989.7 hPa West 30.6 km/h 46.7 km/h 90 % 0 mm 72 W/m2
10:37 7.8 °C 6.3 °C 989.7 hPa West 33.8 km/h 48.3 km/h 90 % 0 mm 83 W/m2
10:39 7.8 °C 6.3 °C 989.4 hPa West 27.4 km/h 46.7 km/h 90 % 0 mm 81 W/m2
10:45 7.8 °C 6.4 °C 989.7 hPa West 25.7 km/h 40.2 km/h 91 % 0 mm 114 W/m2
10:50 7.8 °C 6.4 °C 990.1 hPa West 24.1 km/h 40.2 km/h 91 % 0 mm 113 W/m2
10:52 7.7 °C 6.3 °C 990.1 hPa West 27.4 km/h 40.2 km/h 91 % 0 mm 109 W/m2
10:57 7.8 °C 6.4 °C 990.1 hPa West 22.5 km/h 37 km/h 91 % 0 mm 153 W/m2
11:01 7.8 °C 6.4 °C 990.1 hPa West 22.5 km/h 37 km/h 91 % 0 mm 132 W/m2
11:03 7.8 °C 6.4 °C 990.1 hPa West 24.1 km/h 35.4 km/h 91 % 0 mm 134 W/m2
11:07 7.9 °C 6.5 °C 990.4 hPa West 24.1 km/h 35.4 km/h 91 % 0 mm 134 W/m2
11:08 7.9 °C 6.5 °C 990.1 hPa West 22.5 km/h 35.4 km/h 91 % 0 mm 134 W/m2
11:12 8 °C 6.6 °C 990.1 hPa West 22.5 km/h 40.2 km/h 91 % 0 mm 329 W/m2
11:19 8.1 °C 6.7 °C 990.1 hPa WSW 20.9 km/h 32.2 km/h 91 % 0 mm 153 W/m2
11:21 8.1 °C 6.7 °C 990.1 hPa West 19.3 km/h 29 km/h 91 % 0 mm 100 W/m2
11:26 8.2 °C 6.8 °C 990.1 hPa WSW 20.9 km/h 35.4 km/h 91 % 0 mm 118 W/m2
11:27 8.2 °C 6.8 °C 990.4 hPa WSW 22.5 km/h 35.4 km/h 91 % 0 mm 142 W/m2
11:28 8.2 °C 6.8 °C 990.4 hPa WSW 22.5 km/h 37 km/h 91 % 0 mm 97 W/m2
11:32 8.2 °C 6.8 °C 990.4 hPa West 24.1 km/h 38.6 km/h 91 % 0 mm 118 W/m2
11:36 8.2 °C 6.8 °C 990.1 hPa WSW 19.3 km/h 33.8 km/h 91 % 0 mm 100 W/m2
11:40 8.2 °C 6.8 °C 990.4 hPa West 16.1 km/h 29 km/h 91 % 0 mm 95 W/m2
11:44 8.2 °C 6.8 °C 990.1 hPa WSW 16.1 km/h 25.7 km/h 91 % 0 mm 116 W/m2
11:46 8.2 °C 6.8 °C 990.1 hPa WSW 14.5 km/h 24.1 km/h 91 % 0 mm 104 W/m2
11:51 8.3 °C 6.9 °C 990.4 hPa West 20.9 km/h 29 km/h 91 % 0 mm 93 W/m2
11:55 8.3 °C 6.9 °C 990.4 hPa West 14.5 km/h 22.5 km/h 91 % 0 mm 74 W/m2
11:58 8.3 °C 6.9 °C 990.4 hPa WSW 16.1 km/h 30.6 km/h 91 % 0 mm 91 W/m2
12:02 8.4 °C 7 °C 990.4 hPa West 24.1 km/h 37 km/h 91 % 0 mm 104 W/m2
12:03 8.5 °C 7.1 °C 990.4 hPa West 20.9 km/h 35.4 km/h 91 % 0 mm 97 W/m2
12:08 8.6 °C 7.1 °C 990.7 hPa West 20.9 km/h 32.2 km/h 90 % 0 mm 107 W/m2
12:09 8.7 °C 7.2 °C 990.7 hPa West 20.9 km/h 32.2 km/h 90 % 0 mm 107 W/m2
12:12 8.8 °C 7.1 °C 990.4 hPa WSW 20.9 km/h 33.8 km/h 89 % 0 mm 125 W/m2
12:15 8.8 °C 7.1 °C 990.7 hPa WSW 22.5 km/h 37 km/h 89 % 0 mm 185 W/m2
12:20 9.1 °C 7.2 °C 990.4 hPa West 27.4 km/h 38.6 km/h 88 % 0 mm 206 W/m2
12:21 9.1 °C 7.2 °C 990.4 hPa West 24.1 km/h 38.6 km/h 88 % 0 mm 192 W/m2
12:26 9.4 °C 7.3 °C 990.7 hPa West 19.3 km/h 30.6 km/h 87 % 0 mm 155 W/m2
12:29 9.5 °C 7.3 °C 990.7 hPa West 25.7 km/h 38.6 km/h 86 % 0 mm 160 W/m2
12:31 9.6 °C 7.4 °C 990.7 hPa West 22.5 km/h 33.8 km/h 86 % 0 mm 151 W/m2
12:36 9.7 °C 7.3 °C 990.7 hPa WSW 22.5 km/h 43.5 km/h 85 % 0 mm 165 W/m2
12:37 9.7 °C 7.3 °C 990.7 hPa WSW 22.5 km/h 43.5 km/h 85 % 0 mm 165 W/m2
12:42 9.8 °C 7.4 °C 990.7 hPa West 24.1 km/h 45.1 km/h 85 % 0 mm 116 W/m2
12:43 9.8 °C 7.4 °C 990.7 hPa West 24.1 km/h 37 km/h 85 % 0 mm 113 W/m2
12:46 9.9 °C 7.3 °C 990.7 hPa West 24.1 km/h 41.8 km/h 84 % 0 mm 81 W/m2
12:48 9.9 °C 7.3 °C 990.7 hPa West 25.7 km/h 38.6 km/h 84 % 0 mm 137 W/m2
12:53 9.9 °C 7.5 °C 990.7 hPa West 17.7 km/h 37 km/h 85 % 0 mm 91 W/m2
12:54 9.9 °C 7.5 °C 990.7 hPa West 20.9 km/h 37 km/h 85 % 0 mm 88 W/m2
12:56 9.9 °C 7.3 °C 990.7 hPa West 24.1 km/h 38.6 km/h 84 % 0 mm 98 W/m2
12:59 9.9 °C 7.2 °C 991.1 hPa West 29 km/h 48.3 km/h 83 % 0 mm 93 W/m2
13:03 10.1 °C 7.2 °C 991.1 hPa West 38.6 km/h 62.8 km/h 82 % 0 mm 90 W/m2
13:07 10.1 °C 7.2 °C 991.1 hPa West 32.2 km/h 54.7 km/h 82 % 0 mm 100 W/m2
13:12 10 °C 7.1 °C 991.1 hPa West 20.9 km/h 33.8 km/h 82 % 0 mm 111 W/m2
13:17 10 °C 6.9 °C 991.1 hPa West 33.8 km/h 49.9 km/h 81 % 0 mm 102 W/m2
13:18 10 °C 6.9 °C 991.1 hPa West 30.6 km/h 49.9 km/h 81 % 0 mm 102 W/m2
13:23 10 °C 6.7 °C 991.1 hPa West 33.8 km/h 54.7 km/h 80 % 0 mm 98 W/m2
13:28 9.9 °C 6.2 °C 991.4 hPa West 30.6 km/h 51.5 km/h 78 % 0 mm 93 W/m2
13:29 9.9 °C 6.2 °C 991.4 hPa West 32.2 km/h 51.5 km/h 78 % 0 mm 100 W/m2
13:33 9.9 °C 6.1 °C 991.4 hPa West 29 km/h 43.5 km/h 77 % 0 mm 102 W/m2
13:35 9.9 °C 6.2 °C 991.4 hPa West 27.4 km/h 43.5 km/h 78 % 0 mm 98 W/m2
13:37 9.9 °C 6.2 °C 991.4 hPa West 30.6 km/h 45.1 km/h 78 % 0 mm 95 W/m2
13:41 9.9 °C 6.2 °C 991.4 hPa West 22.5 km/h 37 km/h 78 % 0 mm 86 W/m2
13:45 9.9 °C 6.2 °C 991.8 hPa West 29 km/h 41.8 km/h 78 % 0 mm 83 W/m2
13:48 9.9 °C 6.2 °C 991.8 hPa West 25.7 km/h 43.5 km/h 78 % 0 mm 77 W/m2
13:53 9.8 °C 6.3 °C 991.8 hPa West 22.5 km/h 41.8 km/h 79 % 0 mm 77 W/m2
13:58 9.8 °C 5.8 °C 992.1 hPa West 35.4 km/h 57.9 km/h 76 % 0 mm 67 W/m2
14:00 9.8 °C 5.8 °C 992.1 hPa West 35.4 km/h 57.9 km/h 76 % 0 mm 62 W/m2
14:05 9.8 °C 5.6 °C 992.1 hPa West 35.4 km/h 46.7 km/h 75 % 0 mm 60 W/m2
14:10 9.8 °C 5.4 °C 992.1 hPa West 33.8 km/h 57.9 km/h 74 % 0 mm 60 W/m2
14:11 9.8 °C 5.4 °C 992.1 hPa West 37 km/h 57.9 km/h 74 % 0 mm 58 W/m2
14:16 9.7 °C 5.3 °C 992.1 hPa West 35.4 km/h 48.3 km/h 74 % 0 mm 54 W/m2
14:21 9.6 °C 5.2 °C 992.1 hPa West 37 km/h 59.5 km/h 74 % 0 mm 53 W/m2
14:23 9.6 °C 5.2 °C 992.1 hPa West 33.8 km/h 43.5 km/h 74 % 0 mm 51 W/m2
14:28 9.6 °C 5.2 °C 992.4 hPa West 32.2 km/h 51.5 km/h 74 % 0 mm 46 W/m2
14:29 9.6 °C 5.2 °C 992.4 hPa West 29 km/h 43.5 km/h 74 % 0 mm 46 W/m2
14:34 9.5 °C 5.1 °C 992.4 hPa West 33.8 km/h 51.5 km/h 74 % 0 mm 42 W/m2
14:38 9.4 °C 5.2 °C 992.4 hPa West 29 km/h 46.7 km/h 75 % 0 mm 37 W/m2
14:39 9.4 °C 5.2 °C 992.4 hPa West 27.4 km/h 46.7 km/h 75 % 0 mm 35 W/m2
14:44 9.4 °C 5.2 °C 992.4 hPa West 20.9 km/h 41.8 km/h 75 % 0 mm 32 W/m2
14:46 9.3 °C 5.1 °C 992.8 hPa West 24.1 km/h 41.8 km/h 75 % 0 mm 30 W/m2
14:51 9.3 °C 5.1 °C 992.8 hPa West 30.6 km/h 43.5 km/h 75 % 0 mm 30 W/m2
14:52 9.3 °C 5.1 °C 992.8 hPa West 27.4 km/h 41.8 km/h 75 % 0 mm 28 W/m2
14:54 9.3 °C 5.1 °C 992.8 hPa West 24.1 km/h 38.6 km/h 75 % 0 mm 28 W/m2
14:59 9.2 °C 5 °C 993.1 hPa West 24.1 km/h 38.6 km/h 75 % 0 mm 33 W/m2
15:04 9.2 °C 5 °C 993.1 hPa West 25.7 km/h 38.6 km/h 75 % 0 mm 28 W/m2
15:05 9.3 °C 5.1 °C 993.1 hPa West 27.4 km/h 38.6 km/h 75 % 0 mm 28 W/m2
15:10 9.2 °C 5 °C 993.5 hPa West 24.1 km/h 41.8 km/h 75 % 0 mm 25 W/m2
15:11 9.2 °C 5 °C 993.5 hPa West 27.4 km/h 41.8 km/h 75 % 0 mm 23 W/m2
15:16 9.2 °C 5 °C 993.5 hPa West 27.4 km/h 43.5 km/h 75 % 0 mm 21 W/m2
15:17 9.2 °C 5 °C 993.5 hPa West 25.7 km/h 43.5 km/h 75 % 0 mm 18 W/m2
15:21 9.2 °C 5 °C 993.5 hPa West 25.7 km/h 37 km/h 75 % 0 mm 14 W/m2
15:26 9.1 °C 4.9 °C 993.5 hPa West 25.7 km/h 43.5 km/h 75 % 0 mm 12 W/m2
15:27 9.1 °C 4.9 °C 993.5 hPa West 24.1 km/h 43.5 km/h 75 % 0 mm 12 W/m2
15:30 9.1 °C 4.9 °C 993.8 hPa West 24.1 km/h 37 km/h 75 % 0 mm 12 W/m2
15:33 9.1 °C 4.9 °C 993.8 hPa West 24.1 km/h 41.8 km/h 75 % 0 mm 12 W/m2
15:37 9.1 °C 4.9 °C 993.8 hPa West 22.5 km/h 38.6 km/h 75 % 0 mm 11 W/m2
15:42 9 °C 4.8 °C 993.8 hPa West 22.5 km/h 32.2 km/h 75 % 0 mm 7 W/m2
15:43 9 °C 4.8 °C 994.1 hPa West 19.3 km/h 30.6 km/h 75 % 0 mm 7 W/m2
15:44 9 °C 4.8 °C 994.1 hPa West 19.3 km/h 35.4 km/h 75 % 0 mm 7 W/m2
15:50 8.9 °C 4.7 °C 994.1 hPa West 22.5 km/h 33.8 km/h 75 % 0 mm 5 W/m2
15:54 8.9 °C 4.7 °C 994.1 hPa West 24.1 km/h 38.6 km/h 75 % 0 mm 0 W/m2
15:59 8.9 °C 4.7 °C 994.5 hPa West 17.7 km/h 35.4 km/h 75 % 0 mm 0 W/m2
16:00 8.9 °C 4.7 °C 994.5 hPa West 16.1 km/h 22.5 km/h 75 % 0 mm 0 W/m2
16:05 8.8 °C 4.6 °C 994.5 hPa West 22.5 km/h 33.8 km/h 75 % 0 mm 0 W/m2
16:09 8.8 °C 4.6 °C 994.8 hPa West 22.5 km/h 33.8 km/h 75 % 0 mm 0 W/m2
16:11 8.8 °C 4.6 °C 994.8 hPa West 25.7 km/h 41.8 km/h 75 % 0 mm 0 W/m2
16:15 8.8 °C 4.6 °C 994.8 hPa West 25.7 km/h 38.6 km/h 75 % 0 mm 0 W/m2
16:20 8.8 °C 4.4 °C 994.8 hPa West 20.9 km/h 33.8 km/h 74 % 0 mm 0 W/m2
16:25 8.8 °C 4.4 °C 995.1 hPa West 20.9 km/h 37 km/h 74 % 0 mm 0 W/m2
16:28 8.8 °C 4.4 °C 995.1 hPa West 22.5 km/h 35.4 km/h 74 % 0 mm 0 W/m2
16:33 8.8 °C 4.4 °C 995.1 hPa West 25.7 km/h 38.6 km/h 74 % 0 mm 0 W/m2
16:38 8.8 °C 4.2 °C 995.1 hPa WSW 25.7 km/h 41.8 km/h 73 % 0 mm 0 W/m2
16:41 8.8 °C 4.2 °C 995.1 hPa West 24.1 km/h 40.2 km/h 73 % 0 mm 0 W/m2
16:46 8.8 °C 4.2 °C 995.1 hPa WSW 27.4 km/h 43.5 km/h 73 % 0 mm 0 W/m2
16:48 8.7 °C 4.1 °C 995.1 hPa WSW 24.1 km/h 37 km/h 73 % 0 mm 0 W/m2
16:53 8.7 °C 4.1 °C 995.1 hPa West 27.4 km/h 37 km/h 73 % 0 mm 0 W/m2
16:55 8.7 °C 4.1 °C 995.5 hPa West 20.9 km/h 33.8 km/h 73 % 0 mm 0 W/m2
16:59 8.6 °C 4.1 °C 995.5 hPa West 17.7 km/h 32.2 km/h 73 % 0 mm 0 W/m2
17:00 8.6 °C 4.1 °C 995.5 hPa WSW 16.1 km/h 25.7 km/h 73 % 0 mm 0 W/m2
17:03 8.6 °C 4.1 °C 995.5 hPa WSW 19.3 km/h 32.2 km/h 73 % 0 mm 0 W/m2
17:08 8.5 °C 4.1 °C 995.5 hPa WSW 24.1 km/h 33.8 km/h 74 % 0 mm 0 W/m2
17:13 8.4 °C 4.1 °C 995.5 hPa WSW 17.7 km/h 24.1 km/h 74 % 0 mm 0 W/m2
17:18 8.4 °C 4.1 °C 995.5 hPa WSW 17.7 km/h 25.7 km/h 74 % 0 mm 0 W/m2
17:20 8.4 °C 4.1 °C 995.5 hPa WSW 16.1 km/h 24.1 km/h 74 % 0 mm 0 W/m2
17:23 8.3 °C 3.9 °C 995.5 hPa WSW 19.3 km/h 33.8 km/h 74 % 0 mm 0 W/m2
17:26 8.3 °C 4.1 °C 995.5 hPa West 17.7 km/h 32.2 km/h 75 % 0 mm 0 W/m2
17:31 8.2 °C 4.1 °C 995.5 hPa West 12.9 km/h 22.5 km/h 75 % 0 mm 0 W/m2
17:32 8.2 °C 4.1 °C 995.5 hPa WSW 14.5 km/h 30.6 km/h 75 % 0 mm 0 W/m2
17:34 8.2 °C 4.1 °C 995.5 hPa West 16.1 km/h 30.6 km/h 75 % 0 mm 0 W/m2
17:38 8.2 °C 4.1 °C 995.5 hPa WSW 20.9 km/h 35.4 km/h 75 % 0 mm 0 W/m2
17:39 8.2 °C 4.1 °C 995.5 hPa WSW 20.9 km/h 35.4 km/h 75 % 0 mm 0 W/m2
17:44 8.2 °C 4.1 °C 995.8 hPa WSW 16.1 km/h 38.6 km/h 75 % 0 mm 0 W/m2
17:45 8.1 °C 3.9 °C 995.5 hPa WSW 19.3 km/h 38.6 km/h 75 % 0 mm 0 W/m2
17:50 8.1 °C 4.1 °C 995.8 hPa WSW 16.1 km/h 25.7 km/h 76 % 0 mm 0 W/m2
17:53 8.1 °C 4.1 °C 995.8 hPa WSW 16.1 km/h 24.1 km/h 76 % 0 mm 0 W/m2
17:58 8.1 °C 3.9 °C 996.2 hPa WSW 19.3 km/h 32.2 km/h 75 % 0 mm 0 W/m2
18:00 8.1 °C 3.9 °C 996.2 hPa WSW 16.1 km/h 29 km/h 75 % 0 mm 0 W/m2
18:05 8.1 °C 3.9 °C 996.2 hPa WSW 16.1 km/h 25.7 km/h 75 % 0 mm 0 W/m2
18:06 8.1 °C 3.9 °C 996.2 hPa WSW 19.3 km/h 37 km/h 75 % 0 mm 0 W/m2
18:10 8.1 °C 3.9 °C 996.2 hPa WSW 16.1 km/h 30.6 km/h 75 % 0 mm 0 W/m2
18:11 8.1 °C 3.9 °C 996.2 hPa WSW 17.7 km/h 30.6 km/h 75 % 0 mm 0 W/m2
18:16 8.1 °C 3.9 °C 995.8 hPa WSW 14.5 km/h 22.5 km/h 75 % 0 mm 0 W/m2
18:18 8.1 °C 3.9 °C 996.2 hPa WSW 17.7 km/h 32.2 km/h 75 % 0 mm 0 W/m2
18:23 8.1 °C 3.9 °C 996.2 hPa WSW 20.9 km/h 32.2 km/h 75 % 0 mm 0 W/m2
18:24 8.1 °C 3.9 °C 996.2 hPa WSW 14.5 km/h 25.7 km/h 75 % 0 mm 0 W/m2
18:26 8.1 °C 3.9 °C 996.2 hPa WSW 14.5 km/h 24.1 km/h 75 % 0 mm 0 W/m2
18:31 8.1 °C 3.9 °C 996.8 hPa WSW 16.1 km/h 25.7 km/h 75 % 0 mm 0 W/m2
18:32 8.1 °C 3.9 °C 996.5 hPa WSW 16.1 km/h 22.5 km/h 75 % 0 mm 0 W/m2
18:38 8.1 °C 3.7 °C 996.5 hPa WSW 14.5 km/h 30.6 km/h 74 % 0 mm 0 W/m2
18:42 8.1 °C 3.7 °C 996.8 hPa WSW 16.1 km/h 30.6 km/h 74 % 0 mm 0 W/m2
18:47 8.1 °C 3.7 °C 996.5 hPa WSW 16.1 km/h 25.7 km/h 74 % 0 mm 0 W/m2
18:48 8.2 °C 3.8 °C 996.5 hPa WSW 17.7 km/h 30.6 km/h 74 % 0 mm 0 W/m2
18:53 8.2 °C 3.8 °C 996.5 hPa West 14.5 km/h 24.1 km/h 74 % 0 mm 0 W/m2
18:54 8.2 °C 3.8 °C 996.5 hPa West 19.3 km/h 37 km/h 74 % 0 mm 0 W/m2
18:58 8.3 °C 3.9 °C 996.8 hPa West 14.5 km/h 24.1 km/h 74 % 0 mm 0 W/m2
18:59 8.3 °C 3.9 °C 996.5 hPa West 17.7 km/h 25.7 km/h 74 % 0 mm 0 W/m2
19:04 8.3 °C 3.7 °C 996.5 hPa WSW 16.1 km/h 33.8 km/h 73 % 0 mm 0 W/m2
19:06 8.3 °C 3.7 °C 996.5 hPa West 17.7 km/h 29 km/h 73 % 0 mm 0 W/m2
19:11 8.3 °C 3.7 °C 996.5 hPa West 19.3 km/h 32.2 km/h 73 % 0 mm 0 W/m2
19:16 8.3 °C 3.7 °C 996.5 hPa WSW 12.9 km/h 22.5 km/h 73 % 0 mm 0 W/m2
19:19 8.3 °C 3.9 °C 996.8 hPa WSW 12.9 km/h 20.9 km/h 74 % 0 mm 0 W/m2
19:20 8.3 °C 3.9 °C 996.8 hPa WSW 14.5 km/h 24.1 km/h 74 % 0 mm 0 W/m2
19:24 8.3 °C 3.9 °C 996.5 hPa WSW 14.5 km/h 20.9 km/h 74 % 0 mm 0 W/m2
19:29 8.3 °C 4.1 °C 996.5 hPa WSW 12.9 km/h 19.3 km/h 75 % 0 mm 0 W/m2
19:34 8.2 °C 4.1 °C 996.5 hPa WSW 14.5 km/h 25.7 km/h 75 % 0 mm 0 W/m2
19:35 8.2 °C 4.1 °C 996.5 hPa WSW 14.5 km/h 25.7 km/h 75 % 0 mm 0 W/m2
19:37 8.2 °C 4.1 °C 996.5 hPa WSW 14.5 km/h 20.9 km/h 75 % 0 mm 0 W/m2
19:42 8.3 °C 3.9 °C 996.5 hPa West 19.3 km/h 32.2 km/h 74 % 0 mm 0 W/m2
19:44 8.3 °C 3.9 °C 996.5 hPa West 24.1 km/h 35.4 km/h 74 % 0 mm 0 W/m2
19:46 8.3 °C 3.9 °C 996.5 hPa West 17.7 km/h 35.4 km/h 74 % 0 mm 0 W/m2
19:50 8.4 °C 4.1 °C 996.5 hPa West 19.3 km/h 32.2 km/h 74 % 0 mm 0 W/m2
19:55 8.5 °C 3.9 °C 996.5 hPa West 22.5 km/h 43.5 km/h 73 % 0 mm 0 W/m2
20:00 8.5 °C 3.9 °C 996.5 hPa West 19.3 km/h 32.2 km/h 73 % 0 mm 0 W/m2
20:02 8.6 °C 4.1 °C 996.5 hPa WSW 17.7 km/h 30.6 km/h 73 % 0 mm 0 W/m2
20:03 8.6 °C 4.1 °C 996.2 hPa WSW 17.7 km/h 30.6 km/h 73 % 0 mm 0 W/m2
20:08 8.6 °C 4.1 °C 996.2 hPa WSW 20.9 km/h 33.8 km/h 73 % 0 mm 0 W/m2
20:13 8.6 °C 4.1 °C 996.2 hPa WSW 17.7 km/h 29 km/h 73 % 0 mm 0 W/m2
20:17 8.6 °C 4.2 °C 996.2 hPa West 14.5 km/h 22.5 km/h 74 % 0 mm 0 W/m2
20:22 8.6 °C 4.4 °C 996.2 hPa WSW 9.7 km/h 17.7 km/h 75 % 0 mm 0 W/m2
20:23 8.5 °C 4.3 °C 996.2 hPa WSW 9.7 km/h 14.5 km/h 75 % 0 mm 0 W/m2
20:28 8.4 °C 4.2 °C 996.2 hPa West 3.2 km/h 8 km/h 75 % 0 mm 0 W/m2
20:29 8.5 °C 4.3 °C 996.2 hPa West 3.2 km/h 8 km/h 75 % 0 mm 0 W/m2
20:34 8.4 °C 4.4 °C 996.2 hPa WSW 6.4 km/h 14.5 km/h 76 % 0 mm 0 W/m2
20:36 8.4 °C 4.4 °C 996.2 hPa SW 4.8 km/h 9.7 km/h 76 % 0 mm 0 W/m2
20:40 8.3 °C 4.3 °C 996.2 hPa SW 1.6 km/h 9.7 km/h 76 % 0 mm 0 W/m2
20:45 8.4 °C 4.6 °C 995.8 hPa SSW 6.4 km/h 14.5 km/h 77 % 0 mm 0 W/m2
20:50 8.4 °C 4.6 °C 995.8 hPa SW 6.4 km/h 12.9 km/h 77 % 0 mm 0 W/m2
20:53 8.4 °C 4.6 °C 995.8 hPa WSW 3.2 km/h 14.5 km/h 77 % 0 mm 0 W/m2
20:56 8.4 °C 4.6 °C 995.8 hPa SW 9.7 km/h 16.1 km/h 77 % 0 mm 0 W/m2
21:01 8.4 °C 4.6 °C 995.8 hPa SW 8 km/h 16.1 km/h 77 % 0 mm 0 W/m2
21:04 8.4 °C 4.8 °C 995.8 hPa SW 4.8 km/h 16.1 km/h 78 % 0 mm 0 W/m2
21:09 8.4 °C 4.8 °C 995.8 hPa WSW 8 km/h 20.9 km/h 78 % 0 mm 0 W/m2
21:11 8.4 °C 4.8 °C 995.8 hPa SW 6.4 km/h 19.3 km/h 78 % 0 mm 0 W/m2
21:15 8.4 °C 4.8 °C 995.8 hPa WSW 12.9 km/h 24.1 km/h 78 % 0 mm 0 W/m2
21:17 8.4 °C 4.9 °C 995.8 hPa WSW 14.5 km/h 24.1 km/h 79 % 0 mm 0 W/m2
21:22 8.4 °C 4.9 °C 995.8 hPa WSW 12.9 km/h 17.7 km/h 79 % 0 mm 0 W/m2
21:26 8.3 °C 4.9 °C 995.5 hPa WSW 14.5 km/h 20.9 km/h 79 % 0 mm 0 W/m2
21:29 8.3 °C 5.1 °C 995.5 hPa WSW 12.9 km/h 24.1 km/h 80 % 0 mm 0 W/m2
21:31 8.4 °C 5.2 °C 995.5 hPa WSW 16.1 km/h 24.1 km/h 80 % 0 mm 0 W/m2
21:36 8.4 °C 5.2 °C 995.5 hPa WSW 8 km/h 16.1 km/h 80 % 0 mm 0 W/m2
21:37 8.4 °C 5.2 °C 995.5 hPa WSW 9.7 km/h 16.1 km/h 80 % 0 mm 0 W/m2
21:42 8.3 °C 5.1 °C 995.5 hPa SW 11.3 km/h 17.7 km/h 80 % 0 mm 0 W/m2
21:44 8.3 °C 5.1 °C 995.8 hPa WSW 11.3 km/h 20.9 km/h 80 % 0 mm 0 W/m2
21:47 8.3 °C 5.1 °C 995.8 hPa SW 11.3 km/h 19.3 km/h 80 % 0 mm 0 W/m2
21:51 8.3 °C 5.1 °C 995.5 hPa SW 11.3 km/h 17.7 km/h 80 % 0 mm 0 W/m2
21:56 8.3 °C 5.1 °C 995.5 hPa SW 9.7 km/h 17.7 km/h 80 % 0 mm 0 W/m2
21:59 8.3 °C 5.1 °C 995.5 hPa SW 9.7 km/h 19.3 km/h 80 % 0 mm 0 W/m2
22:05 8.3 °C 5.2 °C 995.5 hPa SW 4.8 km/h 12.9 km/h 81 % 0 mm 0 W/m2
22:06 8.3 °C 5.2 °C 995.5 hPa SW 6.4 km/h 14.5 km/h 81 % 0 mm 0 W/m2
22:11 8.3 °C 5.2 °C 995.5 hPa WSW 8 km/h 14.5 km/h 81 % 0 mm 0 W/m2
22:13 8.3 °C 5.2 °C 995.5 hPa SW 3.2 km/h 11.3 km/h 81 % 0 mm 0 W/m2
22:17 8.3 °C 5.2 °C 995.5 hPa SW 8 km/h 12.9 km/h 81 % 0 mm 0 W/m2
22:20 8.3 °C 5.2 °C 995.5 hPa WSW 4.8 km/h 12.9 km/h 81 % 0 mm 0 W/m2
22:25 8.3 °C 5.4 °C 995.1 hPa WSW 3.2 km/h 6.4 km/h 82 % 0 mm 0 W/m2
22:27 8.3 °C 5.4 °C 995.1 hPa SW 1.6 km/h 4.8 km/h 82 % 0 mm 0 W/m2
22:28 8.3 °C 5.4 °C 995.1 hPa SW 3.2 km/h 12.9 km/h 82 % 0 mm 0 W/m2
22:32 8.2 °C 5.3 °C 994.8 hPa SW 6.4 km/h 16.1 km/h 82 % 0 mm 0 W/m2
22:37 8.3 °C 5.2 °C 994.8 hPa SW 6.4 km/h 14.5 km/h 81 % 0 mm 0 W/m2
22:40 8.3 °C 5.2 °C 994.8 hPa WSW 8 km/h 16.1 km/h 81 % 0 mm 0 W/m2
22:45 8.3 °C 5.2 °C 994.8 hPa SW 9.7 km/h 17.7 km/h 81 % 0 mm 0 W/m2
22:47 8.3 °C 5.2 °C 994.8 hPa WSW 4.8 km/h 9.7 km/h 81 % 0 mm 0 W/m2
22:52 8.3 °C 5.2 °C 994.8 hPa SSW 6.4 km/h 12.9 km/h 81 % 0 mm 0 W/m2
22:54 8.3 °C 5.4 °C 994.8 hPa SSW 6.4 km/h 11.3 km/h 82 % 0 mm 0 W/m2
22:56 8.3 °C 5.4 °C 994.8 hPa SSW 6.4 km/h 11.3 km/h 82 % 0 mm 0 W/m2
23:01 8.3 °C 5.4 °C 994.8 hPa South 4.8 km/h 9.7 km/h 82 % 0 mm 0 W/m2
23:06 8.3 °C 5.4 °C 994.8 hPa SE 6.4 km/h 9.7 km/h 82 % 0 mm 0 W/m2
23:07 8.3 °C 5.4 °C 994.8 hPa SE 6.4 km/h 9.7 km/h 82 % 0 mm 0 W/m2
23:11 8.3 °C 5.4 °C 994.8 hPa SSE 4.8 km/h 11.3 km/h 82 % 0 mm 0 W/m2
23:15 8.3 °C 5.4 °C 994.5 hPa SSE 3.2 km/h 9.7 km/h 82 % 0 mm 0 W/m2
23:17 8.3 °C 5.4 °C 994.5 hPa SSE 8 km/h 12.9 km/h 82 % 0 mm 0 W/m2
23:22 8.3 °C 5.4 °C 994.1 hPa South 4.8 km/h 11.3 km/h 82 % 0 mm 0 W/m2
23:23 8.3 °C 5.4 °C 994.1 hPa South 6.4 km/h 16.1 km/h 82 % 0 mm 0 W/m2
23:28 8.3 °C 5.4 °C 993.8 hPa SSE 11.3 km/h 17.7 km/h 82 % 0 mm 0 W/m2
23:33 8.3 °C 5.4 °C 993.8 hPa SSE 8 km/h 14.5 km/h 82 % 0 mm 0 W/m2
23:38 8.2 °C 5.3 °C 993.8 hPa South 8 km/h 16.1 km/h 82 % 0 mm 0 W/m2
23:40 8.2 °C 5.3 °C 993.5 hPa SSE 11.3 km/h 16.1 km/h 82 % 0 mm 0 W/m2
23:44 8.2 °C 5.3 °C 993.5 hPa SSE 11.3 km/h 19.3 km/h 82 % 0 mm 0 W/m2
23:46 8.2 °C 5.3 °C 993.5 hPa SSE 11.3 km/h 17.7 km/h 82 % 0 mm 0 W/m2
23:51 8.2 °C 5.3 °C 993.5 hPa South 8 km/h 12.9 km/h 82 % 0 mm 0 W/m2
23:52 8.2 °C 5.3 °C 993.5 hPa South 6.4 km/h 12.9 km/h 82 % 0 mm 0 W/m2
23:58 8.2 °C 5.5 °C 993.1 hPa South 8 km/h 12.9 km/h 83 % 0 mm 0 W/m2
23:59 8.1 °C 5.4 °C 993.1 hPa South 6.4 km/h 11.3 km/h 83 % 0 mm 0 W/m2
Delerius-Weather
Compliments of Weather Underground - 3 mb

Data updates at regular intervals.